Time;durP1;ratioP1;P1;durP2;ratioP2;P2;SDS_P1;SDS_P2;PMS_P1;PMS_P2;Temp;Humidity;BMP_temperature;BMP_pressure;BME280_temperature;BME280_humidity;BME280_pressure;Samples;Min_cycle;Max_cycle;Signal;HPM_P1;HPM_P2
2022/08/26 00:15:41;;;;;;;3.95;3.65;;;;;;;;;;4991989;28;20290;-37
2022/08/26 00:18:29;;;;;;;4.20;3.47;;;;;;;;;;4987638;28;20314;-33
2022/08/26 00:21:29;;;;;;;3.70;3.40;;;;;;;;;;4982000;28;20214;-36
2022/08/26 00:29:57;;;;;;;4.75;3.80;;;;;;;;;;4993754;28;20223;-34
2022/08/26 00:56:05;;;;;;;3.97;3.65;;;;;;;;;;5015973;23;20478;-33
2022/08/26 00:58:33;;;;;;;4.30;3.53;;;;;;;;;;4993337;28;20747;-35
2022/08/26 01:01:02;;;;;;;4.22;3.80;;;;;;;;;;4992734;28;20210;-32
2022/08/26 01:03:31;;;;;;;4.45;4.03;;;;;;;;;;4992982;28;20204;-29
2022/08/26 01:05:59;;;;;;;8.63;4.20;;;;;;;;;;5001427;28;20230;-32
2022/08/26 01:08:27;;;;;;;4.63;4.18;;;;;;;;;;5004564;28;20234;-31
2022/08/26 01:10:54;;;;;;;5.72;4.25;;;;;;;;;;4996908;28;20310;-33
2022/08/26 01:13:23;;;;;;;5.13;4.00;;;;;;;;;;5004123;28;20211;-34
2022/08/26 01:15:52;;;;;;;4.20;3.70;;;;;;;;;;5005791;28;20211;-29
2022/08/26 01:18:19;;;;;;;4.82;3.85;;;;;;;;;;4996527;28;20221;-30
2022/08/26 01:20:49;;;;;;;4.18;3.70;;;;;;;;;;5003057;28;20207;-30
2022/08/26 01:23:18;;;;;;;4.30;3.90;;;;;;;;;;5006697;28;20219;-29
2022/08/26 01:25:47;;;;;;;6.93;4.35;;;;;;;;;;5002208;28;20203;-28
2022/08/26 01:28:15;;;;;;;6.03;4.70;;;;;;;;;;5002693;28;20230;-30
2022/08/26 01:30:43;;;;;;;4.80;4.03;;;;;;;;;;5008630;28;20235;-29
2022/08/26 01:33:13;;;;;;;5.55;4.40;;;;;;;;;;5006730;28;20215;-32
2022/08/26 01:35:40;;;;;;;5.60;3.97;;;;;;;;;;4994646;28;20202;-29
2022/08/26 01:38:07;;;;;;;5.60;3.95;;;;;;;;;;4999624;28;20264;-30
2022/08/26 01:40:37;;;;;;;3.90;3.60;;;;;;;;;;4991688;28;20203;-33
2022/08/26 01:43:06;;;;;;;3.70;3.40;;;;;;;;;;5000937;28;20230;-30
2022/08/26 01:45:34;;;;;;;3.97;3.53;;;;;;;;;;5003506;28;20207;-29
2022/08/26 01:48:03;;;;;;;4.32;3.80;;;;;;;;;;4999211;28;20227;-31
2022/08/26 01:50:32;;;;;;;3.80;3.50;;;;;;;;;;5003082;28;20230;-27
2022/08/26 01:53:00;;;;;;;4.53;3.40;;;;;;;;;;5005421;28;20282;-32
2022/08/26 01:55:29;;;;;;;4.85;3.60;;;;;;;;;;5003808;28;20214;-32
2022/08/26 01:57:57;;;;;;;5.67;3.53;;;;;;;;;;5002438;28;20238;-29
2022/08/26 02:00:26;;;;;;;5.03;3.60;;;;;;;;;;5010888;28;20203;-29
2022/08/26 02:03:15;;;;;;;3.73;3.43;;;;;;;;;;4996819;28;20218;-31
2022/08/26 02:05:42;;;;;;;4.10;3.27;;;;;;;;;;4997659;28;20199;-29
2022/08/26 02:08:10;;;;;;;3.60;3.23;;;;;;;;;;4993415;28;20232;-29
2022/08/26 02:10:37;;;;;;;4.07;3.47;;;;;;;;;;5010311;28;20291;-30
2022/08/26 02:13:07;;;;;;;4.57;4.17;;;;;;;;;;5002155;28;20211;-28
2022/08/26 02:15:34;;;;;;;5.13;3.87;;;;;;;;;;5006312;28;20203;-30
2022/08/26 02:18:01;;;;;;;4.53;3.60;;;;;;;;;;4992986;28;20232;-30
2022/08/26 02:20:28;;;;;;;7.85;4.18;;;;;;;;;;4997743;28;20223;-29
2022/08/26 02:22:56;;;;;;;4.97;3.83;;;;;;;;;;4998723;28;20214;-31
2022/08/26 02:25:27;;;;;;;7.07;4.30;;;;;;;;;;4994564;28;20203;-29
2022/08/26 02:27:55;;;;;;;6.07;3.97;;;;;;;;;;5001802;28;20227;-28
2022/08/26 02:30:25;;;;;;;4.15;3.75;;;;;;;;;;4990954;28;20238;-30
2022/08/26 02:32:52;;;;;;;5.00;4.50;;;;;;;;;;4997748;28;20204;-27
2022/08/26 02:35:21;;;;;;;4.30;3.90;;;;;;;;;;4990466;28;20279;-30
2022/08/26 02:37:48;;;;;;;4.93;4.00;;;;;;;;;;4991266;28;20230;-28
2022/08/26 02:40:16;;;;;;;5.13;3.90;;;;;;;;;;4991378;28;20299;-31
2022/08/26 02:42:43;;;;;;;4.20;3.73;;;;;;;;;;4990255;28;20430;-30
2022/08/26 02:45:11;;;;;;;6.32;4.32;;;;;;;;;;5000300;28;20221;-30
2022/08/26 02:47:40;;;;;;;4.40;3.70;;;;;;;;;;4999714;28;20223;-29
2022/08/26 02:50:07;;;;;;;3.57;3.27;;;;;;;;;;4990289;28;20219;-29
2022/08/26 02:52:35;;;;;;;4.27;3.90;;;;;;;;;;4991088;28;20214;-30
2022/08/26 02:55:02;;;;;;;6.07;4.23;;;;;;;;;;4992423;28;20282;-31
2022/08/26 02:57:29;;;;;;;5.13;4.63;;;;;;;;;;5008717;28;20223;-31
2022/08/26 02:59:56;;;;;;;5.87;4.40;;;;;;;;;;5005283;28;20211;-30
2022/08/26 03:02:24;;;;;;;6.75;4.63;;;;;;;;;;5000194;28;20286;-31
2022/08/26 03:04:52;;;;;;;5.43;4.90;;;;;;;;;;4997367;28;20206;-30
2022/08/26 03:07:19;;;;;;;6.07;4.43;;;;;;;;;;5006446;28;20226;-30
2022/08/26 03:09:46;;;;;;;4.50;4.10;;;;;;;;;;4990661;28;20235;-31
2022/08/26 03:12:13;;;;;;;6.20;4.13;;;;;;;;;;4989762;28;20207;-30
2022/08/26 03:14:41;;;;;;;5.10;4.37;;;;;;;;;;4990561;28;20215;-33
2022/08/26 03:17:08;;;;;;;7.03;3.97;;;;;;;;;;4999336;28;20226;-31
2022/08/26 03:19:35;;;;;;;4.93;3.80;;;;;;;;;;5003283;28;20202;-32
2022/08/26 03:22:03;;;;;;;4.90;4.40;;;;;;;;;;4999121;28;20223;-35
2022/08/26 03:24:31;;;;;;;4.75;4.07;;;;;;;;;;5000881;28;20207;-33
2022/08/26 03:26:58;;;;;;;4.83;4.13;;;;;;;;;;5001712;28;20229;-33
2022/08/26 03:32:10;;;;;;;6.67;4.10;;;;;;;;;;5001361;28;20238;-32
2022/08/26 03:34:37;;;;;;;4.85;4.35;;;;;;;;;;4992011;28;20208;-33
2022/08/26 03:37:06;;;;;;;4.88;4.13;;;;;;;;;;4988875;28;20234;-33
2022/08/26 03:39:33;;;;;;;4.90;4.33;;;;;;;;;;5004883;28;20203;-31
2022/08/26 03:42:00;;;;;;;6.33;4.33;;;;;;;;;;5000562;28;20217;-32
2022/08/26 03:44:28;;;;;;;6.37;4.10;;;;;;;;;;5009681;28;20233;-31
2022/08/26 03:46:55;;;;;;;7.70;4.63;;;;;;;;;;4996854;28;20227;-31
2022/08/26 03:49:22;;;;;;;6.97;4.10;;;;;;;;;;5005423;28;20207;-33
2022/08/26 03:51:49;;;;;;;5.27;4.23;;;;;;;;;;5005366;28;20221;-32
2022/08/26 03:54:18;;;;;;;4.70;4.30;;;;;;;;;;4990408;28;20203;-33
2022/08/26 03:56:46;;;;;;;5.10;4.60;;;;;;;;;;5004219;28;20214;-34
2022/08/26 03:59:13;;;;;;;4.17;3.87;;;;;;;;;;4990810;28;20207;-32
2022/08/26 04:01:40;;;;;;;5.90;4.77;;;;;;;;;;5009141;28;20207;-31
2022/08/26 04:04:07;;;;;;;4.90;4.37;;;;;;;;;;4989265;28;20216;-32
2022/08/26 04:06:36;;;;;;;5.75;4.78;;;;;;;;;;5002932;28;20200;-31
2022/08/26 04:09:05;;;;;;;7.43;4.80;;;;;;;;;;4994618;28;20220;-33
2022/08/26 04:11:34;;;;;;;5.80;4.80;;;;;;;;;;5007713;28;20218;-31
2022/08/26 04:14:03;;;;;;;5.67;4.77;;;;;;;;;;4994111;28;20299;-31
2022/08/26 04:16:30;;;;;;;5.97;4.73;;;;;;;;;;4998661;28;20258;-34
2022/08/26 04:18:57;;;;;;;4.50;4.10;;;;;;;;;;4994618;28;20212;-35
2022/08/26 04:21:25;;;;;;;6.17;4.83;;;;;;;;;;5000758;28;20207;-33
2022/08/26 04:23:52;;;;;;;6.23;5.00;;;;;;;;;;5005629;28;20203;-35
2022/08/26 04:26:20;;;;;;;7.17;5.13;;;;;;;;;;5004627;28;20212;-35
2022/08/26 04:28:49;;;;;;;4.90;4.20;;;;;;;;;;5010862;28;20219;-33
2022/08/26 04:31:17;;;;;;;5.90;4.47;;;;;;;;;;5014919;28;20323;-33
2022/08/26 04:33:45;;;;;;;5.87;4.23;;;;;;;;;;4999521;28;20208;-30
2022/08/26 04:36:12;;;;;;;4.20;3.80;;;;;;;;;;4996694;28;20211;-30
2022/08/26 04:38:39;;;;;;;6.23;4.50;;;;;;;;;;4999086;28;20238;-31
2022/08/26 04:41:10;;;;;;;5.83;4.23;;;;;;;;;;5000732;28;20200;-30
2022/08/26 04:43:37;;;;;;;4.77;4.23;;;;;;;;;;5001280;28;20207;-32
2022/08/26 04:46:06;;;;;;;4.50;4.10;;;;;;;;;;4999824;28;20207;-32
2022/08/26 04:48:42;;;;;;;4.33;3.93;;;;;;;;;;5001921;28;20220;-33
2022/08/26 04:51:09;;;;;;;5.23;4.73;;;;;;;;;;5005263;28;20226;-33
2022/08/26 04:53:37;;;;;;;7.53;4.67;;;;;;;;;;5002354;28;20206;-32
2022/08/26 04:56:04;;;;;;;5.33;4.60;;;;;;;;;;5008105;28;20228;-32
2022/08/26 04:58:31;;;;;;;4.77;4.27;;;;;;;;;;5014663;28;20251;-32
2022/08/26 05:00:58;;;;;;;4.33;3.93;;;;;;;;;;5008823;28;20211;-28
2022/08/26 05:03:27;;;;;;;6.00;4.53;;;;;;;;;;5002733;28;20204;-31
2022/08/26 05:05:54;;;;;;;6.73;4.87;;;;;;;;;;5011257;28;20206;-31
2022/08/26 05:08:22;;;;;;;5.40;4.90;;;;;;;;;;5001221;28;20239;-30
2022/08/26 05:10:51;;;;;;;8.10;5.33;;;;;;;;;;5001604;28;20278;-29
2022/08/26 05:13:20;;;;;;;5.87;4.93;;;;;;;;;;5012086;28;20199;-32
2022/08/26 05:15:48;;;;;;;5.20;4.70;;;;;;;;;;5014059;28;20207;-34
2022/08/26 05:18:15;;;;;;;5.37;4.87;;;;;;;;;;5006682;28;20326;-34
2022/08/26 05:20:45;;;;;;;5.37;4.70;;;;;;;;;;4994539;28;20231;-30
2022/08/26 05:23:13;;;;;;;5.77;5.17;;;;;;;;;;5000612;28;20210;-30
2022/08/26 05:25:41;;;;;;;5.83;5.23;;;;;;;;;;4994821;28;20204;-30
2022/08/26 05:28:08;;;;;;;7.57;4.90;;;;;;;;;;5004407;28;20230;-30
2022/08/26 05:30:40;;;;;;;8.10;4.77;;;;;;;;;;5014909;28;20238;-31
2022/08/26 05:33:08;;;;;;;6.18;4.25;;;;;;;;;;5002651;28;20204;-29
2022/08/26 05:35:37;;;;;;;7.90;4.70;;;;;;;;;;4999185;28;20211;-32
2022/08/26 05:38:07;;;;;;;5.87;5.20;;;;;;;;;;4998031;28;20259;-31
2022/08/26 05:40:35;;;;;;;7.67;5.20;;;;;;;;;;5001119;28;20195;-30
2022/08/26 05:43:06;;;;;;;5.33;4.70;;;;;;;;;;4997169;28;20249;-29
2022/08/26 05:45:33;;;;;;;8.73;5.63;;;;;;;;;;4994601;28;20235;-30
2022/08/26 05:48:01;;;;;;;9.30;6.22;;;;;;;;;;5006385;28;20234;-30
2022/08/26 05:50:28;;;;;;;7.00;6.03;;;;;;;;;;5008237;28;20231;-28
2022/08/26 05:52:55;;;;;;;5.88;5.38;;;;;;;;;;5011666;28;20225;-28
2022/08/26 05:55:23;;;;;;;6.43;5.78;;;;;;;;;;5004014;28;20231;-30
2022/08/26 05:57:50;;;;;;;8.20;5.80;;;;;;;;;;5011171;28;20219;-30
2022/08/26 06:00:17;;;;;;;8.40;6.10;;;;;;;;;;5010315;28;20291;-30
2022/08/26 06:02:44;;;;;;;7.70;5.85;;;;;;;;;;5006009;28;20207;-30
2022/08/26 06:05:12;;;;;;;9.73;6.13;;;;;;;;;;5005017;28;20207;-31
2022/08/26 06:10:24;;;;;;;8.70;6.25;;;;;;;;;;5002193;28;20199;-31
2022/08/26 06:12:52;;;;;;;6.63;6.00;;;;;;;;;;4993715;28;20204;-30
2022/08/26 06:15:19;;;;;;;6.25;5.55;;;;;;;;;;4992413;28;20199;-30
2022/08/26 06:17:46;;;;;;;9.93;6.55;;;;;;;;;;5004760;28;20219;-31
2022/08/26 06:20:13;;;;;;;8.23;5.82;;;;;;;;;;5002428;28;20211;-32
2022/08/26 06:25:38;;;;;;;9.02;6.25;;;;;;;;;;4993492;28;20203;-30
2022/08/26 06:28:05;;;;;;;8.00;5.75;;;;;;;;;;5003295;28;20227;-31
2022/08/26 06:30:33;;;;;;;6.95;5.60;;;;;;;;;;5013171;28;20211;-29
2022/08/26 06:33:00;;;;;;;6.03;5.43;;;;;;;;;;4998798;28;20215;-35
2022/08/26 06:35:27;;;;;;;7.97;5.25;;;;;;;;;;4998084;28;20211;-29
2022/08/26 06:37:55;;;;;;;6.93;5.75;;;;;;;;;;4991552;28;20355;-30
2022/08/26 06:40:22;;;;;;;6.05;5.45;;;;;;;;;;5004284;28;20209;-30
2022/08/26 06:42:50;;;;;;;5.97;4.80;;;;;;;;;;5004496;28;20203;-30
2022/08/26 06:45:18;;;;;;;6.18;5.38;;;;;;;;;;5009154;28;20215;-29
2022/08/26 06:47:45;;;;;;;6.53;5.50;;;;;;;;;;5000316;28;20220;-31
2022/08/26 06:50:12;;;;;;;6.03;4.68;;;;;;;;;;4995026;28;20203;-29
2022/08/26 06:52:41;;;;;;;5.75;5.20;;;;;;;;;;5005081;28;20226;-32
2022/08/26 06:55:08;;;;;;;5.57;5.07;;;;;;;;;;5008084;28;20211;-31
2022/08/26 07:00:14;;;;;;;6.57;5.10;;;;;;;;;;5010169;28;20238;-34
2022/08/26 07:02:41;;;;;;;5.43;4.90;;;;;;;;;;5004669;28;20207;-37
2022/08/26 07:05:09;;;;;;;5.20;4.78;;;;;;;;;;5000766;28;20212;-35
2022/08/26 07:07:36;;;;;;;5.88;5.00;;;;;;;;;;4992535;28;20231;-35
2022/08/26 07:10:04;;;;;;;6.07;5.47;;;;;;;;;;5003420;28;20216;-39
2022/08/26 07:12:31;;;;;;;5.22;4.57;;;;;;;;;;4997311;28;20219;-36
2022/08/26 07:14:59;;;;;;;7.40;4.63;;;;;;;;;;5011691;28;20212;-35
2022/08/26 07:17:28;;;;;;;5.30;4.80;;;;;;;;;;4993723;28;20231;-39
2022/08/26 07:19:55;;;;;;;7.05;4.65;;;;;;;;;;5001476;28;20260;-37
2022/08/26 07:22:22;;;;;;;7.18;3.88;;;;;;;;;;4991815;28;20217;-35
2022/08/26 07:24:50;;;;;;;7.28;4.80;;;;;;;;;;4990453;28;20215;-40
2022/08/26 07:27:17;;;;;;;4.88;4.47;;;;;;;;;;4998237;28;20225;-39
2022/08/26 07:29:44;;;;;;;4.93;4.45;;;;;;;;;;4987775;28;20212;-36
2022/08/26 07:32:12;;;;;;;6.35;4.28;;;;;;;;;;4996199;28;20285;-41
2022/08/26 07:34:41;;;;;;;6.47;4.75;;;;;;;;;;5007558;28;20257;-39
2022/08/26 07:37:08;;;;;;;5.10;4.00;;;;;;;;;;4995090;28;20219;-38
2022/08/26 07:39:36;;;;;;;4.03;3.72;;;;;;;;;;5000044;28;20217;-35
2022/08/26 07:42:05;;;;;;;4.30;3.90;;;;;;;;;;4994598;28;20290;-35
2022/08/26 07:44:32;;;;;;;4.28;3.88;;;;;;;;;;4994226;28;20234;-40
2022/08/26 07:47:00;;;;;;;5.07;4.03;;;;;;;;;;4999943;28;20238;-40
2022/08/26 07:49:27;;;;;;;6.50;4.45;;;;;;;;;;5002643;28;20214;-39
2022/08/26 07:51:55;;;;;;;5.82;4.10;;;;;;;;;;4996598;28;20226;-44
2022/08/26 07:54:23;;;;;;;5.35;4.30;;;;;;;;;;4997904;28;20207;-40
2022/08/26 07:56:50;;;;;;;5.03;4.38;;;;;;;;;;4998544;28;20234;-36
2022/08/26 07:59:18;;;;;;;4.20;3.70;;;;;;;;;;5002072;28;20238;-35
2022/08/26 08:01:45;;;;;;;4.15;3.75;;;;;;;;;;5005212;28;20200;-36
2022/08/26 08:04:12;;;;;;;4.93;4.28;;;;;;;;;;5001355;28;20222;-40
2022/08/26 08:06:39;;;;;;;5.75;4.07;;;;;;;;;;4998338;28;20200;-40
2022/08/26 08:09:08;;;;;;;4.53;4.13;;;;;;;;;;5001846;28;20221;-37
2022/08/26 08:11:35;;;;;;;5.55;4.75;;;;;;;;;;5000462;28;20223;-41
2022/08/26 08:14:03;;;;;;;5.28;4.20;;;;;;;;;;4998873;28;20223;-40
2022/08/26 08:16:30;;;;;;;3.85;3.55;;;;;;;;;;4995851;28;20210;-39
2022/08/26 08:18:57;;;;;;;4.43;3.88;;;;;;;;;;5004200;28;20211;-36
2022/08/26 08:21:25;;;;;;;4.78;4.20;;;;;;;;;;5000716;28;20200;-37
2022/08/26 08:23:53;;;;;;;4.78;3.92;;;;;;;;;;5000571;28;20203;-35
2022/08/26 08:26:21;;;;;;;4.82;3.90;;;;;;;;;;5011399;28;20203;-39
2022/08/26 08:28:48;;;;;;;4.75;4.22;;;;;;;;;;5013024;28;20223;-40
2022/08/26 08:31:20;;;;;;;4.80;4.00;;;;;;;;;;5007964;28;20231;-35
2022/08/26 08:33:47;;;;;;;5.63;4.68;;;;;;;;;;4998349;28;20203;-36
2022/08/26 08:36:15;;;;;;;4.68;3.78;;;;;;;;;;4993493;28;20204;-35
2022/08/26 08:38:42;;;;;;;4.93;3.60;;;;;;;;;;4996905;28;20247;-43
2022/08/26 08:41:17;;;;;;;4.00;3.60;;;;;;;;;;5002205;28;20203;-42
2022/08/26 08:43:46;;;;;;;4.43;3.80;;;;;;;;;;5007851;28;20270;-43
2022/08/26 08:46:15;;;;;;;4.00;3.70;;;;;;;;;;5010563;28;20279;-40
2022/08/26 08:48:43;;;;;;;6.15;3.88;;;;;;;;;;5002359;28;20223;-37
2022/08/26 08:51:16;;;;;;;4.00;3.70;;;;;;;;;;4992891;28;20196;-39
2022/08/26 08:53:45;;;;;;;4.95;4.10;;;;;;;;;;4993725;28;20203;-38
2022/08/26 08:56:19;;;;;;;8.68;3.80;;;;;;;;;;4992954;28;20212;-36
2022/08/26 08:59:01;;;;;;;5.55;3.88;;;;;;;;;;4992619;28;20247;-42
2022/08/26 09:01:38;;;;;;;4.63;4.20;;;;;;;;;;4994610;28;20202;-41
2022/08/26 09:04:12;;;;;;;4.15;3.75;;;;;;;;;;5005293;28;20229;-40
2022/08/26 09:06:39;;;;;;;3.85;3.53;;;;;;;;;;5006924;28;20233;-43
2022/08/26 09:09:07;;;;;;;3.92;3.53;;;;;;;;;;4999641;28;20215;-39
2022/08/26 09:11:35;;;;;;;4.30;3.80;;;;;;;;;;5011787;28;20222;-36
2022/08/26 09:14:04;;;;;;;6.13;3.88;;;;;;;;;;4994978;28;20199;-41
2022/08/26 09:16:34;;;;;;;5.65;3.72;;;;;;;;;;4991258;28;20203;-41
2022/08/26 09:19:06;;;;;;;4.63;4.03;;;;;;;;;;5002068;28;20208;-41
2022/08/26 09:21:33;;;;;;;7.05;3.70;;;;;;;;;;5006525;28;20199;-38
2022/08/26 09:24:00;;;;;;;5.90;3.95;;;;;;;;;;4997250;28;20235;-39
2022/08/26 09:26:28;;;;;;;7.07;4.68;;;;;;;;;;5003367;28;20199;-37
2022/08/26 09:28:56;;;;;;;4.88;4.07;;;;;;;;;;5011579;28;20199;-42
2022/08/26 09:31:26;;;;;;;6.32;4.10;;;;;;;;;;5003763;28;20219;-41
2022/08/26 09:34:04;;;;;;;6.00;4.47;;;;;;;;;;5007179;28;20809;-41
2022/08/26 09:36:35;;;;;;;8.77;4.85;;;;;;;;;;4998341;28;20246;-39
2022/08/26 09:39:02;;;;;;;10.73;4.68;;;;;;;;;;4991454;28;20218;-36
2022/08/26 09:41:30;;;;;;;6.07;3.92;;;;;;;;;;5004290;28;20253;-39
2022/08/26 09:44:11;;;;;;;13.02;5.47;;;;;;;;;;5011455;28;20217;-41
2022/08/26 09:46:41;;;;;;;7.45;4.60;;;;;;;;;;5011983;28;20230;-39
2022/08/26 09:49:22;;;;;;;6.13;4.22;;;;;;;;;;5000971;28;20211;-39
2022/08/26 09:51:49;;;;;;;6.10;4.35;;;;;;;;;;4999601;28;20220;-38
2022/08/26 09:54:25;;;;;;;8.35;4.43;;;;;;;;;;4992202;28;20207;-41
2022/08/26 09:56:52;;;;;;;9.23;4.35;;;;;;;;;;5006604;28;20261;-37
2022/08/26 09:59:29;;;;;;;7.60;5.03;;;;;;;;;;4980978;28;20222;-37
2022/08/26 10:02:14;;;;;;;5.72;4.13;;;;;;;;;;4993888;28;20199;-36
2022/08/26 10:04:41;;;;;;;11.10;4.25;;;;;;;;;;4992800;28;20211;-42
2022/08/26 10:07:09;;;;;;;6.28;4.28;;;;;;;;;;4995211;28;20238;-38
2022/08/26 10:09:39;;;;;;;7.57;4.70;;;;;;;;;;4996192;28;20214;-37
2022/08/26 10:12:08;;;;;;;6.00;4.47;;;;;;;;;;4997618;28;20219;-40
2022/08/26 10:14:39;;;;;;;6.35;3.90;;;;;;;;;;4993332;28;20242;-41
2022/08/26 10:17:09;;;;;;;6.25;4.70;;;;;;;;;;4997554;28;20231;-38
2022/08/26 10:19:39;;;;;;;6.63;4.90;;;;;;;;;;4994928;28;20211;-36
2022/08/26 10:22:08;;;;;;;9.60;4.80;;;;;;;;;;4999550;28;20262;-38
2022/08/26 10:24:40;;;;;;;9.40;4.65;;;;;;;;;;4986594;28;20216;-39
2022/08/26 10:27:12;;;;;;;8.45;5.00;;;;;;;;;;4998688;28;20234;-38
2022/08/26 10:29:41;;;;;;;8.00;4.97;;;;;;;;;;4998996;28;20236;-37
2022/08/26 10:32:12;;;;;;;6.22;3.85;;;;;;;;;;5002768;28;20223;-38
2022/08/26 10:34:41;;;;;;;5.75;4.18;;;;;;;;;;5002413;28;20536;-39
2022/08/26 10:37:11;;;;;;;7.10;4.78;;;;;;;;;;4998562;28;20233;-36
2022/08/26 10:39:42;;;;;;;9.40;4.85;;;;;;;;;;5002920;28;20211;-42
2022/08/26 10:42:14;;;;;;;13.55;4.53;;;;;;;;;;5010123;28;20258;-37
2022/08/26 10:44:42;;;;;;;6.53;4.10;;;;;;;;;;5010862;28;20199;-40
2022/08/26 10:47:15;;;;;;;8.93;4.57;;;;;;;;;;5000319;28;20249;-39
2022/08/26 10:49:43;;;;;;;6.32;4.90;;;;;;;;;;5010102;28;20203;-35
2022/08/26 10:52:14;;;;;;;5.10;4.60;;;;;;;;;;4990773;28;20215;-37
2022/08/26 10:54:44;;;;;;;7.18;3.72;;;;;;;;;;5000759;28;20200;-37
2022/08/26 10:57:14;;;;;;;7.72;4.63;;;;;;;;;;4992776;28;20224;-41
2022/08/26 10:59:51;;;;;;;4.85;4.35;;;;;;;;;;5007068;28;20210;-41
2022/08/26 11:02:24;;;;;;;10.02;4.20;;;;;;;;;;4998441;28;20206;-36
2022/08/26 11:04:53;;;;;;;8.82;4.65;;;;;;;;;;4998805;28;20279;-39
2022/08/26 11:07:29;;;;;;;10.30;4.35;;;;;;;;;;4990079;28;20230;-40
2022/08/26 11:09:56;;;;;;;8.15;4.80;;;;;;;;;;4999069;28;20203;-46
2022/08/26 11:12:44;;;;;;;6.50;4.50;;;;;;;;;;4994309;28;20219;-41
2022/08/26 11:15:12;;;;;;;7.78;4.43;;;;;;;;;;5010467;28;20207;-39
2022/08/26 11:17:57;;;;;;;5.05;4.30;;;;;;;;;;4996888;28;20226;-41
2022/08/26 11:20:35;;;;;;;6.40;4.28;;;;;;;;;;4998703;28;20204;-36
2022/08/26 11:23:29;;;;;;;7.60;4.72;;;;;;;;;;4991472;28;20211;-39
2022/08/26 11:26:17;;;;;;;5.30;4.15;;;;;;;;;;5001172;28;20207;-38
2022/08/26 11:28:46;;;;;;;7.00;4.47;;;;;;;;;;4995522;28;20319;-38
2022/08/26 11:31:36;;;;;;;7.18;4.20;;;;;;;;;;4992457;28;20207;-37
2022/08/26 11:34:06;;;;;;;6.07;4.60;;;;;;;;;;4999333;28;20234;-38
2022/08/26 11:36:41;;;;;;;8.77;4.88;;;;;;;;;;4990790;28;20204;-41
2022/08/26 11:39:16;;;;;;;8.85;5.30;;;;;;;;;;4989560;28;20206;-38
2022/08/26 11:41:44;;;;;;;6.13;4.30;;;;;;;;;;4999806;28;20206;-38
2022/08/26 11:44:12;;;;;;;9.18;5.72;;;;;;;;;;5009492;28;20211;-41
2022/08/26 11:46:39;;;;;;;7.10;4.88;;;;;;;;;;4992813;28;20254;-40
2022/08/26 11:49:07;;;;;;;9.52;4.40;;;;;;;;;;4995146;28;20212;-38
2022/08/26 11:51:36;;;;;;;11.13;4.40;;;;;;;;;;5003519;28;20275;-40
2022/08/26 11:54:10;;;;;;;8.23;4.40;;;;;;;;;;4993812;28;20247;-40
2022/08/26 11:56:37;;;;;;;7.40;4.20;;;;;;;;;;5004678;28;20203;-37
2022/08/26 11:59:08;;;;;;;10.02;4.63;;;;;;;;;;5009792;28;20219;-41
2022/08/26 12:01:36;;;;;;;9.40;4.85;;;;;;;;;;5010370;28;20273;-41
2022/08/26 12:04:04;;;;;;;6.35;3.80;;;;;;;;;;4993252;28;20207;-40
2022/08/26 12:06:34;;;;;;;7.82;3.47;;;;;;;;;;4998154;28;20207;-37
2022/08/26 12:09:02;;;;;;;4.95;2.60;;;;;;;;;;4994089;28;20203;-35
2022/08/26 12:11:32;;;;;;;4.25;2.90;;;;;;;;;;4994468;28;20199;-37
2022/08/26 12:14:00;;;;;;;5.18;4.18;;;;;;;;;;4993146;28;20224;-41
2022/08/26 12:16:28;;;;;;;8.57;4.10;;;;;;;;;;4991354;28;20212;-36
2022/08/26 12:18:55;;;;;;;6.55;3.80;;;;;;;;;;4991289;28;20204;-39
2022/08/26 12:21:23;;;;;;;9.07;4.43;;;;;;;;;;5005815;28;20215;-39
2022/08/26 12:23:56;;;;;;;7.30;4.22;;;;;;;;;;4995431;28;20212;-37
2022/08/26 12:26:25;;;;;;;6.03;3.63;;;;;;;;;;5001436;28;20199;-40
2022/08/26 12:28:55;;;;;;;5.60;3.72;;;;;;;;;;4995924;28;20235;-37
2022/08/26 12:31:24;;;;;;;5.57;4.20;;;;;;;;;;4993226;28;20204;-38
2022/08/26 12:33:52;;;;;;;6.10;4.07;;;;;;;;;;5005079;28;20543;-39
2022/08/26 12:36:23;;;;;;;6.75;4.32;;;;;;;;;;5000974;28;20200;-39
2022/08/26 12:38:51;;;;;;;6.10;4.30;;;;;;;;;;4995997;28;20231;-42
2022/08/26 12:41:37;;;;;;;6.47;4.60;;;;;;;;;;4993556;28;20208;-40
2022/08/26 12:44:04;;;;;;;12.48;5.25;;;;;;;;;;5000955;28;20204;-39
2022/08/26 12:46:31;;;;;;;9.38;4.22;;;;;;;;;;4992641;28;20196;-43
2022/08/26 12:49:00;;;;;;;9.27;5.03;;;;;;;;;;5009356;28;20203;-39
2022/08/26 12:51:28;;;;;;;9.73;5.00;;;;;;;;;;4997668;28;20195;-39
2022/08/26 12:53:57;;;;;;;6.55;4.68;;;;;;;;;;5006509;28;20223;-40
2022/08/26 12:59:07;;;;;;;9.80;4.93;;;;;;;;;;5011795;28;20237;-35
2022/08/26 13:01:39;;;;;;;7.53;4.97;;;;;;;;;;5008193;28;20834;-36
2022/08/26 13:04:06;;;;;;;7.00;4.28;;;;;;;;;;4996249;28;20215;-34
2022/08/26 13:06:34;;;;;;;7.82;4.60;;;;;;;;;;4993179;28;20204;-34
2022/08/26 13:09:05;;;;;;;7.25;4.50;;;;;;;;;;4997375;28;20212;-35
2022/08/26 13:11:33;;;;;;;8.43;4.43;;;;;;;;;;5000115;28;20212;-34
2022/08/26 13:14:01;;;;;;;9.38;4.93;;;;;;;;;;4998966;28;20234;-35
2022/08/26 13:16:28;;;;;;;7.85;4.35;;;;;;;;;;5000178;28;20208;-35
2022/08/26 13:18:56;;;;;;;7.32;4.22;;;;;;;;;;4996735;28;20206;-36
2022/08/26 13:21:25;;;;;;;7.03;4.28;;;;;;;;;;5000243;28;20204;-37
2022/08/26 13:24:03;;;;;;;8.65;5.13;;;;;;;;;;4994350;28;20641;-34
2022/08/26 13:26:30;;;;;;;8.60;4.50;;;;;;;;;;5005521;28;20187;-33
2022/08/26 13:28:58;;;;;;;9.63;4.85;;;;;;;;;;5005850;28;20216;-34
2022/08/26 13:31:26;;;;;;;11.35;5.05;;;;;;;;;;5004495;28;20206;-35
2022/08/26 13:33:53;;;;;;;5.97;4.82;;;;;;;;;;5002209;28;20227;-35
2022/08/26 13:36:20;;;;;;;13.00;5.38;;;;;;;;;;4997254;28;20229;-36
2022/08/26 13:38:47;;;;;;;9.82;4.90;;;;;;;;;;5003147;28;20219;-35
2022/08/26 13:41:15;;;;;;;8.23;5.15;;;;;;;;;;4998501;28;20208;-34
2022/08/26 13:43:43;;;;;;;10.48;5.38;;;;;;;;;;4996935;28;20227;-33
2022/08/26 13:46:10;;;;;;;13.07;5.47;;;;;;;;;;5008621;28;20207;-37
2022/08/26 13:48:37;;;;;;;8.43;4.95;;;;;;;;;;5005852;28;20265;-34
2022/08/26 13:51:05;;;;;;;8.10;5.25;;;;;;;;;;4996477;28;20208;-35
2022/08/26 13:53:32;;;;;;;13.48;5.05;;;;;;;;;;4997594;28;20223;-36
2022/08/26 13:56:01;;;;;;;9.55;4.85;;;;;;;;;;4999026;28;20203;-33
2022/08/26 13:58:29;;;;;;;7.15;4.90;;;;;;;;;;5000741;28;20231;-34
2022/08/26 14:00:58;;;;;;;14.00;5.45;;;;;;;;;;4992459;28;20215;-35
2022/08/26 14:03:25;;;;;;;11.00;4.93;;;;;;;;;;5001145;28;20207;-35
2022/08/26 14:05:52;;;;;;;6.97;4.78;;;;;;;;;;5000500;28;20203;-32
2022/08/26 14:08:19;;;;;;;11.85;5.18;;;;;;;;;;4985314;28;20231;-36
2022/08/26 14:10:46;;;;;;;9.38;4.55;;;;;;;;;;4994753;28;20207;-44
2022/08/26 14:13:13;;;;;;;10.95;4.72;;;;;;;;;;5002027;28;20223;-44
2022/08/26 14:15:42;;;;;;;10.48;5.32;;;;;;;;;;4994317;28;20211;-44
2022/08/26 14:18:10;;;;;;;9.68;5.15;;;;;;;;;;4998356;28;20231;-42
2022/08/26 14:20:37;;;;;;;6.03;4.72;;;;;;;;;;5008264;28;20199;-44
2022/08/26 14:23:04;;;;;;;12.75;5.25;;;;;;;;;;4998537;28;20210;-45
2022/08/26 14:25:32;;;;;;;11.30;5.60;;;;;;;;;;5013209;28;20309;-42
2022/08/26 14:28:00;;;;;;;10.95;5.43;;;;;;;;;;5013075;28;20306;-43
2022/08/26 14:30:27;;;;;;;9.38;5.10;;;;;;;;;;4996519;28;20250;-41
2022/08/26 14:32:58;;;;;;;8.05;5.18;;;;;;;;;;4994137;28;20280;-44
2022/08/26 14:35:26;;;;;;;13.10;5.30;;;;;;;;;;4998719;28;20218;-44
2022/08/26 14:37:53;;;;;;;10.50;5.25;;;;;;;;;;4995294;28;20224;-44
2022/08/26 14:40:21;;;;;;;9.25;4.65;;;;;;;;;;5005322;28;20207;-45
2022/08/26 14:42:49;;;;;;;11.63;4.90;;;;;;;;;;5005647;28;20195;-44
2022/08/26 14:45:17;;;;;;;10.18;5.32;;;;;;;;;;4994451;28;20204;-43
2022/08/26 14:47:44;;;;;;;8.77;4.93;;;;;;;;;;5001743;28;20223;-43
2022/08/26 14:50:14;;;;;;;10.65;4.80;;;;;;;;;;4995303;28;20221;-43
2022/08/26 14:55:26;;;;;;;10.48;5.40;;;;;;;;;;4998985;28;20206;-44
2022/08/26 14:57:53;;;;;;;10.02;4.95;;;;;;;;;;5004947;28;20230;-42
2022/08/26 15:00:20;;;;;;;10.30;5.15;;;;;;;;;;5007603;28;20200;-44
2022/08/26 15:02:47;;;;;;;10.80;6.00;;;;;;;;;;4992979;28;20566;-43
2022/08/26 15:05:15;;;;;;;10.35;4.90;;;;;;;;;;5004324;28;20195;-43
2022/08/26 15:07:43;;;;;;;9.27;4.43;;;;;;;;;;5006016;28;20234;-43
2022/08/26 15:10:12;;;;;;;11.05;4.95;;;;;;;;;;5001503;28;20229;-41
2022/08/26 15:12:40;;;;;;;10.30;5.25;;;;;;;;;;5006286;28;20206;-43
2022/08/26 15:15:19;;;;;;;8.90;4.80;;;;;;;;;;4992958;28;20224;-45
2022/08/26 15:17:46;;;;;;;7.07;4.55;;;;;;;;;;5002554;28;20227;-43
2022/08/26 15:20:13;;;;;;;11.52;5.53;;;;;;;;;;5009604;28;20298;-43
2022/08/26 15:22:42;;;;;;;8.50;4.50;;;;;;;;;;4993556;28;20204;-40
2022/08/26 15:25:10;;;;;;;10.50;5.30;;;;;;;;;;4995329;28;20211;-44
2022/08/26 15:27:37;;;;;;;8.98;4.47;;;;;;;;;;5001170;28;20224;-43
2022/08/26 15:30:05;;;;;;;9.00;4.95;;;;;;;;;;4991202;28;20220;-42
2022/08/26 15:32:32;;;;;;;11.55;4.97;;;;;;;;;;4993354;28;20290;-41
2022/08/26 15:34:59;;;;;;;10.23;5.38;;;;;;;;;;4999471;28;20219;-43
2022/08/26 15:37:27;;;;;;;7.53;4.75;;;;;;;;;;5000396;28;20224;-42
2022/08/26 15:39:55;;;;;;;11.27;5.18;;;;;;;;;;4994189;28;21773;-39
2022/08/26 15:42:23;;;;;;;8.88;5.22;;;;;;;;;;4991999;28;20204;-42
2022/08/26 15:44:51;;;;;;;9.10;5.05;;;;;;;;;;4992396;28;20216;-42
2022/08/26 15:47:18;;;;;;;10.88;5.60;;;;;;;;;;4993135;28;20223;-41
2022/08/26 15:49:45;;;;;;;9.55;5.32;;;;;;;;;;4996721;28;20216;-43
2022/08/26 15:52:15;;;;;;;9.80;5.68;;;;;;;;;;5000358;28;20199;-42